McNary Field
KSLE : now visible

Airfield :











YOU CAN JOIN US ON...

 
LOGIN :

Register | Disclaimer

   EN    FR    IT 

 









Legend :    VFR   Marginal VFR   IFR   Intensive IFR   Very Intensive IFR
Visi :
Ceiling :
>= 8 km
>= 3000ft
5 to 8 km
1000 to 3000 ft
1500m to 5 km
500 to 1000 ft
800 to 1500m
200 to 500 ft
< 800m
< 200 ft
Symbols :   Thunderstorms  Fog  Heavy snow  Heavy precipitations  Wind > 20 kt






- Airport Elevation : 214 ft


KSLE - McNary Field

CURRENT METAR :
  • 150156Z 31003KT 10SM SCT018 05/04 A2997 RMK AO2 SLP150 T00500039

EXPIRED METARs :
  • 150056Z 29003KT 10SM BKN070 06/04 A2997 RMK AO2 SLP148 T00610039
  • 142356Z 00000KT 10SM BKN065 07/04 A2997 RMK AO2 SLP149 T00720039 10078 20067 56009

TAF KSLE
Valid from the 15 at 00:00 until the 16 at 00:00 UTC


142342Z 1500/1524 19007KT P6SM VCSH BKN050
FM150500 VRB03KT 4SM BR OVC025
FM151000 00000KT 2SM BR OVC006
FM151200 00000KT 1/2SM FG OVC006
FM151900 19005KT 4SM BR SCT006 BKN025
FM152000 20004KT 6SM BR SCT026 OVC045



MET'MAP, your aeronautical weather chart ! - Copyright ORBIFLY December 2007 - Disclaimer

ORBIFLY MET'MAP TEAM :

Programming & Development : Alexandra Zaïnal
Concept & original design : Baudouin d'Aumeries
Assistance for programming : Marc-Olivier Méhu
Technical & hardware support : Manuel Goepfert

Contact : metmap@orbifly.com




SOURCES & CREDITS :

   NOAA       Earth
Advisory